Minerva Anna — SVNP — position and weather

sailwx.info

Track history (hours):
 
Tides and Currents Weather Stations Pressure Air Temp Water Temp Dewpoint Dewpoint Depression Visibility Wind Speed Wind Dir Waves Ship Positions

Minerva Anna

Last reported at 2016-May-27 03:25 UTC. Time now 2016-May-27 19:57 UTC.
Position N 43°51' E 038°30'.

Length 183 m; draft 10.6 m.

Type: Ship (hazmat cat A). MMSI: 240729000.

Date/timePositionNaut miles runAvg speedWind from/ knotsBaromVisibWave heightAir tempDewpointWater temp
2016-May-27 03:25N 43°51' E 038°30'1011.8
2016-May-27 02:33N 43°55' E 038°43'1212.0
2016-May-27 01:33N 43°60' E 038°58'7 6.8
2016-May-27 00:31N 44°05' E 039°04'0 0.1
2016-May-26 23:28N 44°05' E 039°04'0 0.0
2016-May-26 22:31N 44°05' E 039°04'0 0.0
2016-May-26 21:31N 44°05' E 039°04'0 0.0
2016-May-26 20:31N 44°05' E 039°04'0 0.0
2016-May-26 19:31N 44°05' E 039°04'0 0.0
2016-May-26 18:31N 44°05' E 039°04'0 0.0
2016-May-26 17:31N 44°05' E 039°04'0 0.0
2016-May-26 16:31N 44°05' E 039°04'0 0.0
2016-May-26 15:31N 44°05' E 039°04'0 0.0
2016-May-26 14:31N 44°05' E 039°04'0 0.0
2016-May-26 13:31N 44°05' E 039°04'0 0.0
2016-May-26 12:31N 44°05' E 039°04'0 0.0
2016-May-26 11:31N 44°05' E 039°04'0 0.0
2016-May-26 10:31N 44°05' E 039°04'0 0.0
2016-May-26 09:31N 44°05' E 039°04'0 0.0
2016-May-26 08:31N 44°05' E 039°04'0 0.0
2016-May-26 07:31N 44°05' E 039°04'0 0.0
2016-May-26 06:31N 44°05' E 039°04'0 0.0
2016-May-26 05:31N 44°05' E 039°04'0 0.0
2016-May-26 04:31N 44°05' E 039°04'0 0.0
2016-May-26 03:31N 44°05' E 039°04'0 0.0
2016-May-26 02:31N 44°05' E 039°04'0 0.0
2016-May-26 01:31N 44°05' E 039°04'0 0.0
2016-May-26 00:31N 44°05' E 039°04'0 0.0
2016-May-25 23:31N 44°05' E 039°04'0 0.0
2016-May-25 22:31N 44°05' E 039°04'0 0.0
2016-May-25 21:31N 44°05' E 039°04'0 0.0
2016-May-25 20:31N 44°05' E 039°04'0 0.0
2016-May-25 19:31N 44°05' E 039°04'0 0.0
2016-May-25 18:31N 44°05' E 039°04'0 0.0
2016-May-25 17:31N 44°05' E 039°04'0 0.0
2016-May-25 16:31N 44°05' E 039°04'0 0.0
2016-May-25 15:31N 44°05' E 039°04'0 0.0
2016-May-25 14:31N 44°05' E 039°04'0 0.0
2016-May-25 13:31N 44°05' E 039°04'0 0.0
2016-May-25 12:31N 44°05' E 039°04'0 0.0
2016-May-25 11:31N 44°05' E 039°04'0 0.0
2016-May-25 10:31N 44°05' E 039°04'0 0.0
2016-May-25 09:31N 44°05' E 039°04'0 0.0
2016-May-25 08:31N 44°05' E 039°04'0 0.0
2016-May-25 07:31N 44°05' E 039°04'0 0.0
2016-May-25 06:31N 44°05' E 039°04'0 0.0
2016-May-25 05:31N 44°05' E 039°04'0 0.0
2016-May-25 04:31N 44°05' E 039°04'0 0.0
2016-May-25 03:31N 44°05' E 039°04'0 0.0
2016-May-25 02:31N 44°05' E 039°04'0 0.0
2016-May-25 01:31N 44°05' E 039°04'0 0.0
2016-May-25 00:31N 44°05' E 039°04'0 0.0
2016-May-24 23:31N 44°05' E 039°04'0 0.0
2016-May-24 22:31N 44°05' E 039°04'0 0.0
2016-May-24 21:31N 44°05' E 039°04'0 0.2
2016-May-24 20:33N 44°05' E 039°04'3 2.9
2016-May-24 19:33N 44°02' E 039°05'0 0.0
2016-May-24 18:33N 44°03' E 039°05'0 0.0
2016-May-24 17:33N 44°03' E 039°05'0 0.0
2016-May-24 16:33N 44°03' E 039°05'0 0.1
2016-May-24 15:33N 44°03' E 039°05'0 0.0
2016-May-24 14:33N 44°03' E 039°05'0 0.0
2016-May-24 13:30N 44°03' E 039°05'0 0.0
2016-May-24 12:33N 44°03' E 039°05'0 0.0
2016-May-24 11:33N 44°03' E 039°05'0 0.0
2016-May-24 10:33N 44°03' E 039°05'0 0.1
2016-May-24 09:33N 44°02' E 039°05'0 0.1
2016-May-24 08:33N 44°02' E 039°05'1 0.6
2016-May-24 07:33N 44°02' E 039°04'9 9.1
2016-May-24 06:33N 43°59' E 038°53'10 9.6
2016-May-24 05:34N 43°55' E 038°40'9 9.3
2016-May-24 04:33N 43°52' E 038°28'97 9.5
2016-May-23 18:23N 43°18' E 036°23'7 8.6
2016-May-23 17:31N 43°15' E 036°13'349 8.7
2016-May-22 01:33N 40°59' E 028°60'8 7.9
2016-May-22 00:33N 40°53' E 028°54'9 9.0
2016-May-21 23:30N 40°46' E 028°45'9 7.8
2016-May-21 22:23N 40°37' E 028°45'1 1.2
2016-May-21 21:31N 40°38' E 028°45'1 1.2
2016-May-21 20:33N 40°39' E 028°46'1 1.3
2016-May-21 19:29N 40°40' E 028°47'1 1.2
2016-May-21 18:34N 40°41' E 028°47'1 1.2
2016-May-21 17:32N 40°42' E 028°48'1 1.4
2016-May-21 16:30N 40°44' E 028°49'1 1.1
2016-May-21 15:32N 40°45' E 028°50'1 1.0
2016-May-21 14:32N 40°46' E 028°50'1 1.1
2016-May-21 13:34N 40°47' E 028°50'1 0.9
2016-May-21 12:33N 40°48' E 028°50'0 0.4
2016-May-21 11:33N 40°48' E 028°50'0 0.1
2016-May-21 10:33N 40°48' E 028°50'0 0.2
2016-May-21 09:34N 40°48' E 028°51'0 0.2
2016-May-21 08:33N 40°48' E 028°51'0 0.3
2016-May-21 07:33N 40°48' E 028°51'0 0.5
2016-May-21 06:33N 40°48' E 028°52'1 0.7
2016-May-21 05:34N 40°48' E 028°53'1 0.8
2016-May-21 04:34N 40°48' E 028°54'1 0.9
2016-May-21 03:33N 40°49' E 028°55'1 0.9
2016-May-21 02:33N 40°49' E 028°56'1 1.3
2016-May-21 01:33N 40°50' E 028°56'7 7.4
2016-May-21 00:33N 40°48' E 028°46'1110.6
2016-May-20 23:33N 40°42' E 028°36'132 9.4
2016-May-20 09:31N 39°49' E 025°56'9 1.7
2016-May-20 04:20N 39°43' E 025°49'93 8.4
2016-May-19 17:13N 38°14' E 025°11'710.1
2016-May-19 16:33N 38°08' E 025°11'18 9.0
2016-May-19 14:30N 37°51' E 025°21'9 9.7
2016-May-19 13:33N 37°46' E 025°30'12 9.5
2016-May-19 12:20N 37°39' E 025°42'8 9.5
2016-May-19 11:30N 37°33' E 025°49'9 9.7
2016-May-19 10:33N 37°25' E 025°54'338 9.6
2016-May-17 23:21N 34°08' E 031°33'17 9.6
2016-May-17 21:33N 34°01' E 031°52'10 9.8
2016-May-17 20:34N 33°57' E 032°02'10 9.8
2016-May-17 19:34N 33°53' E 032°13'10 9.9
2016-May-17 18:33N 33°49' E 032°24'10 9.9
2016-May-17 17:33N 33°44' E 032°35'10 9.7
2016-May-17 16:33N 33°41' E 032°45'1 1.4
2016-May-17 15:34N 33°42' E 032°45'2 1.8
2016-May-17 14:33N 33°44' E 032°44'1 1.4
2016-May-17 13:34N 33°45' E 032°45'9 9.3
2016-May-17 12:34N 33°46' E 032°56'9 9.4
2016-May-17 11:34N 33°47' E 033°07'7 7.1
2016-May-17 10:34N 33°47' E 033°16'1 1.0
2016-May-17 09:34N 33°47' E 033°17'1 1.3
2016-May-17 08:33N 33°47' E 033°15'1 1.3
2016-May-17 07:34N 33°47' E 033°14'1 1.4
2016-May-17 06:33N 33°47' E 033°12'1 1.3
2016-May-17 05:33N 33°47' E 033°11'1 1.3
2016-May-17 04:32N 33°46' E 033°09'1 1.1
2016-May-17 03:33N 33°46' E 033°08'  
Track history (hours):
 
Tides and Currents Weather Stations Pressure Air Temp Water Temp Dewpoint Dewpoint Depression Visibility Wind Speed Wind Dir Waves Ship Positions

Minerva Anna

Last reported at 2016-May-27 03:25 UTC. Time now 2016-May-27 19:57 UTC.
Position N 43°51' E 038°30'.

Length 183 m; draft 10.6 m.

Type: Ship (hazmat cat A). MMSI: 240729000.

Date/timePositionNaut miles runAvg speedWind from/ knotsBaromVisibWave heightAir tempDewpointWater temp
2016-May-27 03:25N 43°51' E 038°30'1011.8
2016-May-27 02:33N 43°55' E 038°43'1212.0
2016-May-27 01:33N 43°60' E 038°58'7 6.8
2016-May-27 00:31N 44°05' E 039°04'0 0.1
2016-May-26 23:28N 44°05' E 039°04'0 0.0
2016-May-26 22:31N 44°05' E 039°04'0 0.0
2016-May-26 21:31N 44°05' E 039°04'0 0.0
2016-May-26 20:31N 44°05' E 039°04'0 0.0
2016-May-26 19:31N 44°05' E 039°04'0 0.0
2016-May-26 18:31N 44°05' E 039°04'0 0.0
2016-May-26 17:31N 44°05' E 039°04'0 0.0
2016-May-26 16:31N 44°05' E 039°04'0 0.0
2016-May-26 15:31N 44°05' E 039°04'0 0.0
2016-May-26 14:31N 44°05' E 039°04'0 0.0
2016-May-26 13:31N 44°05' E 039°04'0 0.0
2016-May-26 12:31N 44°05' E 039°04'0 0.0
2016-May-26 11:31N 44°05' E 039°04'0 0.0
2016-May-26 10:31N 44°05' E 039°04'0 0.0
2016-May-26 09:31N 44°05' E 039°04'0 0.0
2016-May-26 08:31N 44°05' E 039°04'0 0.0
2016-May-26 07:31N 44°05' E 039°04'0 0.0
2016-May-26 06:31N 44°05' E 039°04'0 0.0
2016-May-26 05:31N 44°05' E 039°04'0 0.0
2016-May-26 04:31N 44°05' E 039°04'0 0.0
2016-May-26 03:31N 44°05' E 039°04'0 0.0
2016-May-26 02:31N 44°05' E 039°04'0 0.0
2016-May-26 01:31N 44°05' E 039°04'0 0.0
2016-May-26 00:31N 44°05' E 039°04'0 0.0
2016-May-25 23:31N 44°05' E 039°04'0 0.0
2016-May-25 22:31N 44°05' E 039°04'0 0.0
2016-May-25 21:31N 44°05' E 039°04'0 0.0
2016-May-25 20:31N 44°05' E 039°04'0 0.0
2016-May-25 19:31N 44°05' E 039°04'0 0.0
2016-May-25 18:31N 44°05' E 039°04'0 0.0
2016-May-25 17:31N 44°05' E 039°04'0 0.0
2016-May-25 16:31N 44°05' E 039°04'0 0.0
2016-May-25 15:31N 44°05' E 039°04'0 0.0
2016-May-25 14:31N 44°05' E 039°04'0 0.0
2016-May-25 13:31N 44°05' E 039°04'0 0.0
2016-May-25 12:31N 44°05' E 039°04'0 0.0
2016-May-25 11:31N 44°05' E 039°04'0 0.0
2016-May-25 10:31N 44°05' E 039°04'0 0.0
2016-May-25 09:31N 44°05' E 039°04'0 0.0
2016-May-25 08:31N 44°05' E 039°04'0 0.0
2016-May-25 07:31N 44°05' E 039°04'0 0.0
2016-May-25 06:31N 44°05' E 039°04'0 0.0
2016-May-25 05:31N 44°05' E 039°04'0 0.0
2016-May-25 04:31N 44°05' E 039°04'0 0.0
2016-May-25 03:31N 44°05' E 039°04'0 0.0
2016-May-25 02:31N 44°05' E 039°04'0 0.0
2016-May-25 01:31N 44°05' E 039°04'0 0.0
2016-May-25 00:31N 44°05' E 039°04'0 0.0
2016-May-24 23:31N 44°05' E 039°04'0 0.0
2016-May-24 22:31N 44°05' E 039°04'0 0.0
2016-May-24 21:31N 44°05' E 039°04'0 0.2
2016-May-24 20:33N 44°05' E 039°04'3 2.9
2016-May-24 19:33N 44°02' E 039°05'0 0.0
2016-May-24 18:33N 44°03' E 039°05'0 0.0
2016-May-24 17:33N 44°03' E 039°05'0 0.0
2016-May-24 16:33N 44°03' E 039°05'0 0.1
2016-May-24 15:33N 44°03' E 039°05'0 0.0
2016-May-24 14:33N 44°03' E 039°05'0 0.0
2016-May-24 13:30N 44°03' E 039°05'0 0.0
2016-May-24 12:33N 44°03' E 039°05'0 0.0
2016-May-24 11:33N 44°03' E 039°05'0 0.0
2016-May-24 10:33N 44°03' E 039°05'0 0.1
2016-May-24 09:33N 44°02' E 039°05'0 0.1
2016-May-24 08:33N 44°02' E 039°05'1 0.6
2016-May-24 07:33N 44°02' E 039°04'9 9.1
2016-May-24 06:33N 43°59' E 038°53'10 9.6
2016-May-24 05:34N 43°55' E 038°40'9 9.3
2016-May-24 04:33N 43°52' E 038°28'97 9.5
2016-May-23 18:23N 43°18' E 036°23'7 8.6
2016-May-23 17:31N 43°15' E 036°13'349 8.7
2016-May-22 01:33N 40°59' E 028°60'8 7.9
2016-May-22 00:33N 40°53' E 028°54'9 9.0
2016-May-21 23:30N 40°46' E 028°45'9 7.8
2016-May-21 22:23N 40°37' E 028°45'1 1.2
2016-May-21 21:31N 40°38' E 028°45'1 1.2
2016-May-21 20:33N 40°39' E 028°46'1 1.3
2016-May-21 19:29N 40°40' E 028°47'1 1.2
2016-May-21 18:34N 40°41' E 028°47'1 1.2
2016-May-21 17:32N 40°42' E 028°48'1 1.4
2016-May-21 16:30N 40°44' E 028°49'1 1.1
2016-May-21 15:32N 40°45' E 028°50'1 1.0
2016-May-21 14:32N 40°46' E 028°50'1 1.1
2016-May-21 13:34N 40°47' E 028°50'1 0.9
2016-May-21 12:33N 40°48' E 028°50'0 0.4
2016-May-21 11:33N 40°48' E 028°50'0 0.1
2016-May-21 10:33N 40°48' E 028°50'0 0.2
2016-May-21 09:34N 40°48' E 028°51'0 0.2
2016-May-21 08:33N 40°48' E 028°51'0 0.3
2016-May-21 07:33N 40°48' E 028°51'0 0.5
2016-May-21 06:33N 40°48' E 028°52'1 0.7
2016-May-21 05:34N 40°48' E 028°53'1 0.8
2016-May-21 04:34N 40°48' E 028°54'1 0.9
2016-May-21 03:33N 40°49' E 028°55'1 0.9
2016-May-21 02:33N 40°49' E 028°56'1 1.3
2016-May-21 01:33N 40°50' E 028°56'7 7.4
2016-May-21 00:33N 40°48' E 028°46'1110.6
2016-May-20 23:33N 40°42' E 028°36'132 9.4
2016-May-20 09:31N 39°49' E 025°56'9 1.7
2016-May-20 04:20N 39°43' E 025°49'93 8.4
2016-May-19 17:13N 38°14' E 025°11'710.1
2016-May-19 16:33N 38°08' E 025°11'18 9.0
2016-May-19 14:30N 37°51' E 025°21'9 9.7
2016-May-19 13:33N 37°46' E 025°30'12 9.5
2016-May-19 12:20N 37°39' E 025°42'8 9.5
2016-May-19 11:30N 37°33' E 025°49'9 9.7
2016-May-19 10:33N 37°25' E 025°54'338 9.6
2016-May-17 23:21N 34°08' E 031°33'17 9.6
2016-May-17 21:33N 34°01' E 031°52'10 9.8
2016-May-17 20:34N 33°57' E 032°02'10 9.8
2016-May-17 19:34N 33°53' E 032°13'10 9.9
2016-May-17 18:33N 33°49' E 032°24'10 9.9
2016-May-17 17:33N 33°44' E 032°35'10 9.7
2016-May-17 16:33N 33°41' E 032°45'1 1.4
2016-May-17 15:34N 33°42' E 032°45'2 1.8
2016-May-17 14:33N 33°44' E 032°44'1 1.4
2016-May-17 13:34N 33°45' E 032°45'9 9.3
2016-May-17 12:34N 33°46' E 032°56'9 9.4
2016-May-17 11:34N 33°47' E 033°07'7 7.1
2016-May-17 10:34N 33°47' E 033°16'1 1.0
2016-May-17 09:34N 33°47' E 033°17'1 1.3
2016-May-17 08:33N 33°47' E 033°15'1 1.3
2016-May-17 07:34N 33°47' E 033°14'1 1.4
2016-May-17 06:33N 33°47' E 033°12'1 1.3
2016-May-17 05:33N 33°47' E 033°11'1 1.3
2016-May-17 04:32N 33°46' E 033°09'1 1.1
2016-May-17 03:33N 33°46' E 033°08'  

Dump ship's entire track history